sensor_id;sensor_type;location;lat;lon;timestamp;pressure;altitude;pressure_sealevel;temperature;humidity
35577;BME280;21680;52.400;16.920;2023-03-26T00:00:35;99378.80;;;6.34;88.96
35577;BME280;21680;52.400;16.920;2023-03-26T00:03:03;99374.88;;;6.35;89.08
35577;BME280;21680;52.400;16.920;2023-03-26T00:05:29;99378.02;;;6.36;89.04
35577;BME280;21680;52.400;16.920;2023-03-26T00:07:57;99378.02;;;6.36;89.03
35577;BME280;21680;52.400;16.920;2023-03-26T00:10:22;99376.14;;;6.34;89.05
35577;BME280;21680;52.400;16.920;2023-03-26T00:12:47;99377.49;;;6.32;88.98
35577;BME280;21680;52.400;16.920;2023-03-26T00:15:13;99378.42;;;6.31;88.94
35577;BME280;21680;52.400;16.920;2023-03-26T00:17:38;99378.79;;;6.31;89.08
35577;BME280;21680;52.400;16.920;2023-03-26T00:20:04;99380.02;;;6.31;89.01
35577;BME280;21680;52.400;16.920;2023-03-26T00:22:29;99386.77;;;6.30;88.96
35577;BME280;21680;52.400;16.920;2023-03-26T00:24:54;99390.52;;;6.30;88.90
35577;BME280;21680;52.400;16.920;2023-03-26T00:27:21;99390.86;;;6.31;89.05
35577;BME280;21680;52.400;16.920;2023-03-26T00:29:46;99377.39;;;6.31;89.02
35577;BME280;21680;52.400;16.920;2023-03-26T00:32:12;99369.98;;;6.29;89.06
35577;BME280;21680;52.400;16.920;2023-03-26T00:34:37;99366.93;;;6.27;89.05
35577;BME280;21680;52.400;16.920;2023-03-26T00:37:05;99360.55;;;6.22;88.93
35577;BME280;21680;52.400;16.920;2023-03-26T00:39:31;99359.98;;;6.19;89.06
35577;BME280;21680;52.400;16.920;2023-03-26T00:41:57;99356.20;;;6.16;89.01
35577;BME280;21680;52.400;16.920;2023-03-26T00:44:23;99356.45;;;6.15;88.90
35577;BME280;21680;52.400;16.920;2023-03-26T00:46:48;99348.51;;;6.14;89.23
35577;BME280;21680;52.400;16.920;2023-03-26T00:49:13;99343.08;;;6.13;89.15
35577;BME280;21680;52.400;16.920;2023-03-26T00:51:42;99346.44;;;6.13;89.11
35577;BME280;21680;52.400;16.920;2023-03-26T00:54:07;99343.06;;;6.13;88.97
35577;BME280;21680;52.400;16.920;2023-03-26T00:56:33;99337.09;;;6.12;89.15
35577;BME280;21680;52.400;16.920;2023-03-26T00:58:59;99335.50;;;6.11;89.06
35577;BME280;21680;52.400;16.920;2023-03-26T01:01:26;99332.22;;;6.09;89.10
35577;BME280;21680;52.400;16.920;2023-03-26T01:03:54;99332.48;;;6.08;89.19
35577;BME280;21680;52.400;16.920;2023-03-26T01:06:27;99331.61;;;6.08;89.14
35577;BME280;21680;52.400;16.920;2023-03-26T01:08:58;99333.91;;;6.08;89.19
35577;BME280;21680;52.400;16.920;2023-03-26T01:11:31;99330.83;;;6.09;89.25
35577;BME280;21680;52.400;16.920;2023-03-26T01:14:06;99328.46;;;6.10;89.24
35577;BME280;21680;52.400;16.920;2023-03-26T01:16:39;99329.29;;;6.12;89.24
35577;BME280;21680;52.400;16.920;2023-03-26T01:19:11;99332.94;;;6.13;89.34
35577;BME280;21680;52.400;16.920;2023-03-26T01:21:38;99329.80;;;6.16;89.30
35577;BME280;21680;52.400;16.920;2023-03-26T01:24:06;99333.05;;;6.18;89.40
35577;BME280;21680;52.400;16.920;2023-03-26T01:26:53;99331.04;;;6.20;89.43
35577;BME280;21680;52.400;16.920;2023-03-26T01:37:34;99329.67;;;6.41;89.80
35577;BME280;21680;52.400;16.920;2023-03-26T01:41:26;99324.58;;;6.41;89.72
35577;BME280;21680;52.400;16.920;2023-03-26T01:43:50;99327.17;;;6.38;89.66
35577;BME280;21680;52.400;16.920;2023-03-26T01:46:17;99335.21;;;6.37;89.76
35577;BME280;21680;52.400;16.920;2023-03-26T01:48:45;99332.27;;;6.35;89.76
35577;BME280;21680;52.400;16.920;2023-03-26T01:51:12;99333.01;;;6.35;89.75
35577;BME280;21680;52.400;16.920;2023-03-26T01:53:45;99330.25;;;6.33;89.63
35577;BME280;21680;52.400;16.920;2023-03-26T02:07:33;99319.70;;;6.35;89.98
35577;BME280;21680;52.400;16.920;2023-03-26T02:10:18;99318.81;;;6.35;89.90
35577;BME280;21680;52.400;16.920;2023-03-26T02:12:45;99318.48;;;6.34;89.74
35577;BME280;21680;52.400;16.920;2023-03-26T02:15:11;99318.31;;;6.34;90.10
35577;BME280;21680;52.400;16.920;2023-03-26T02:17:36;99321.47;;;6.35;90.04
35577;BME280;21680;52.400;16.920;2023-03-26T02:20:09;99320.38;;;6.35;90.08
35577;BME280;21680;52.400;16.920;2023-03-26T02:22:36;99320.52;;;6.36;90.33
35577;BME280;21680;52.400;16.920;2023-03-26T02:25:10;99318.52;;;6.37;90.09
35577;BME280;21680;52.400;16.920;2023-03-26T02:27:37;99320.58;;;6.39;90.01
35577;BME280;21680;52.400;16.920;2023-03-26T02:30:04;99316.84;;;6.39;90.02
35577;BME280;21680;52.400;16.920;2023-03-26T02:32:30;99317.14;;;6.40;89.97
35577;BME280;21680;52.400;16.920;2023-03-26T02:34:55;99305.98;;;6.40;89.88
35577;BME280;21680;52.400;16.920;2023-03-26T02:37:21;99306.89;;;6.39;89.95
35577;BME280;21680;52.400;16.920;2023-03-26T02:39:46;99309.88;;;6.40;89.98
35577;BME280;21680;52.400;16.920;2023-03-26T02:42:12;99312.31;;;6.41;90.06
35577;BME280;21680;52.400;16.920;2023-03-26T02:44:37;99307.80;;;6.42;90.11
35577;BME280;21680;52.400;16.920;2023-03-26T02:47:04;99305.20;;;6.45;90.07
35577;BME280;21680;52.400;16.920;2023-03-26T02:49:30;99302.63;;;6.47;90.01
35577;BME280;21680;52.400;16.920;2023-03-26T02:51:55;99304.43;;;6.49;90.09
35577;BME280;21680;52.400;16.920;2023-03-26T02:54:22;99306.11;;;6.51;89.97
35577;BME280;21680;52.400;16.920;2023-03-26T02:56:47;99306.77;;;6.53;90.03
35577;BME280;21680;52.400;16.920;2023-03-26T02:59:13;99309.15;;;6.55;90.07
35577;BME280;21680;52.400;16.920;2023-03-26T03:01:39;99303.23;;;6.56;90.07
35577;BME280;21680;52.400;16.920;2023-03-26T03:04:09;99306.90;;;6.57;90.07
35577;BME280;21680;52.400;16.920;2023-03-26T03:06:34;99309.13;;;6.59;90.07
35577;BME280;21680;52.400;16.920;2023-03-26T03:08:59;99305.61;;;6.62;90.14
35577;BME280;21680;52.400;16.920;2023-03-26T03:11:29;99304.42;;;6.64;90.18
35577;BME280;21680;52.400;16.920;2023-03-26T03:13:54;99308.28;;;6.65;90.14
35577;BME280;21680;52.400;16.920;2023-03-26T03:16:20;99305.36;;;6.67;90.07
35577;BME280;21680;52.400;16.920;2023-03-26T03:18:45;99312.51;;;6.70;90.11
35577;BME280;21680;52.400;16.920;2023-03-26T03:21:19;99305.34;;;6.71;89.96
35577;BME280;21680;52.400;16.920;2023-03-26T03:23:45;99307.73;;;6.73;89.93
35577;BME280;21680;52.400;16.920;2023-03-26T03:26:16;99306.98;;;6.74;89.88
35577;BME280;21680;52.400;16.920;2023-03-26T03:28:42;99306.60;;;6.74;89.89
35577;BME280;21680;52.400;16.920;2023-03-26T03:31:09;99312.08;;;6.75;89.72
35577;BME280;21680;52.400;16.920;2023-03-26T03:33:34;99308.30;;;6.76;89.79
35577;BME280;21680;52.400;16.920;2023-03-26T03:35:59;99310.91;;;6.77;89.69
35577;BME280;21680;52.400;16.920;2023-03-26T03:38:25;99313.59;;;6.76;89.80
35577;BME280;21680;52.400;16.920;2023-03-26T03:40:50;99312.98;;;6.78;89.76
35577;BME280;21680;52.400;16.920;2023-03-26T03:43:17;99312.39;;;6.79;89.70
35577;BME280;21680;52.400;16.920;2023-03-26T03:45:42;99315.02;;;6.80;89.62
35577;BME280;21680;52.400;16.920;2023-03-26T03:48:07;99315.89;;;6.80;89.61
35577;BME280;21680;52.400;16.920;2023-03-26T03:50:33;99318.15;;;6.81;89.54
35577;BME280;21680;52.400;16.920;2023-03-26T03:52:58;99320.75;;;6.83;89.57
35577;BME280;21680;52.400;16.920;2023-03-26T03:55:24;99320.77;;;6.82;89.44
35577;BME280;21680;52.400;16.920;2023-03-26T03:57:52;99317.58;;;6.82;89.50
35577;BME280;21680;52.400;16.920;2023-03-26T04:00:17;99312.41;;;6.82;89.49
35577;BME280;21680;52.400;16.920;2023-03-26T04:02:43;99309.48;;;6.84;89.53
35577;BME280;21680;52.400;16.920;2023-03-26T04:05:11;99314.90;;;6.86;89.47
35577;BME280;21680;52.400;16.920;2023-03-26T04:07:37;99312.92;;;6.87;89.43
35577;BME280;21680;52.400;16.920;2023-03-26T04:10:05;99315.14;;;6.89;89.27
35577;BME280;21680;52.400;16.920;2023-03-26T04:12:31;99314.32;;;6.91;89.30
35577;BME280;21680;52.400;16.920;2023-03-26T04:14:57;99316.91;;;6.92;89.22
35577;BME280;21680;52.400;16.920;2023-03-26T04:17:23;99314.54;;;6.93;89.19
35577;BME280;21680;52.400;16.920;2023-03-26T04:19:50;99312.91;;;6.94;89.09
35577;BME280;21680;52.400;16.920;2023-03-26T04:22:17;99318.55;;;6.95;88.91
35577;BME280;21680;52.400;16.920;2023-03-26T04:24:44;99308.71;;;6.96;88.92
35577;BME280;21680;52.400;16.920;2023-03-26T04:27:15;99311.92;;;6.96;88.94
35577;BME280;21680;52.400;16.920;2023-03-26T04:29:43;99308.00;;;6.96;88.98
35577;BME280;21680;52.400;16.920;2023-03-26T04:32:15;99306.77;;;6.96;88.83
35577;BME280;21680;52.400;16.920;2023-03-26T04:34:43;99311.18;;;6.97;88.74
35577;BME280;21680;52.400;16.920;2023-03-26T04:37:18;99312.62;;;6.96;88.77
35577;BME280;21680;52.400;16.920;2023-03-26T04:39:46;99307.47;;;6.96;88.65
35577;BME280;21680;52.400;16.920;2023-03-26T04:42:11;99312.05;;;6.97;88.62
35577;BME280;21680;52.400;16.920;2023-03-26T04:44:36;99311.02;;;6.96;88.56
35577;BME280;21680;52.400;16.920;2023-03-26T04:47:01;99311.89;;;6.97;88.46
35577;BME280;21680;52.400;16.920;2023-03-26T04:49:27;99310.80;;;6.97;88.51
35577;BME280;21680;52.400;16.920;2023-03-26T04:51:52;99317.42;;;6.96;88.45
35577;BME280;21680;52.400;16.920;2023-03-26T04:54:19;99311.73;;;6.96;88.41
35577;BME280;21680;52.400;16.920;2023-03-26T04:56:58;99313.92;;;6.95;88.20
35577;BME280;21680;52.400;16.920;2023-03-26T04:59:27;99315.53;;;6.95;88.13
35577;BME280;21680;52.400;16.920;2023-03-26T05:02:01;99309.00;;;6.94;88.11
35577;BME280;21680;52.400;16.920;2023-03-26T05:04:27;99314.86;;;6.94;88.01
35577;BME280;21680;52.400;16.920;2023-03-26T05:06:57;99312.11;;;6.93;88.10
35577;BME280;21680;52.400;16.920;2023-03-26T05:09:24;99313.61;;;6.91;88.08
35577;BME280;21680;52.400;16.920;2023-03-26T05:11:50;99314.33;;;6.90;88.08
35577;BME280;21680;52.400;16.920;2023-03-26T05:14:16;99313.60;;;6.91;87.90
35577;BME280;21680;52.400;16.920;2023-03-26T05:16:42;99309.66;;;6.92;87.91
35577;BME280;21680;52.400;16.920;2023-03-26T05:19:09;99310.90;;;6.92;87.92
35577;BME280;21680;52.400;16.920;2023-03-26T05:21:35;99308.98;;;6.91;87.84
35577;BME280;21680;52.400;16.920;2023-03-26T05:24:00;99309.83;;;6.92;87.70
35577;BME280;21680;52.400;16.920;2023-03-26T05:26:26;99314.13;;;6.91;87.73
35577;BME280;21680;52.400;16.920;2023-03-26T05:28:53;99319.48;;;6.91;87.79
35577;BME280;21680;52.400;16.920;2023-03-26T05:31:19;99325.17;;;6.90;87.58
35577;BME280;21680;52.400;16.920;2023-03-26T05:33:45;99320.07;;;6.90;87.71
35577;BME280;21680;52.400;16.920;2023-03-26T05:36:12;99321.16;;;6.89;87.59
35577;BME280;21680;52.400;16.920;2023-03-26T05:38:38;99323.33;;;6.88;87.52
35577;BME280;21680;52.400;16.920;2023-03-26T05:41:05;99327.02;;;6.89;87.35
35577;BME280;21680;52.400;16.920;2023-03-26T05:43:32;99320.67;;;6.88;87.37
35577;BME280;21680;52.400;16.920;2023-03-26T05:45:58;99324.27;;;6.87;87.30
35577;BME280;21680;52.400;16.920;2023-03-26T05:48:24;99324.84;;;6.86;87.27
35577;BME280;21680;52.400;16.920;2023-03-26T05:50:51;99327.89;;;6.85;87.25
35577;BME280;21680;52.400;16.920;2023-03-26T05:53:17;99335.35;;;6.85;86.97
35577;BME280;21680;52.400;16.920;2023-03-26T05:55:46;99340.29;;;6.86;86.96
35577;BME280;21680;52.400;16.920;2023-03-26T05:58:15;99341.84;;;6.87;86.92
35577;BME280;21680;52.400;16.920;2023-03-26T06:00:41;99336.87;;;6.87;86.88
35577;BME280;21680;52.400;16.920;2023-03-26T06:03:07;99339.20;;;6.87;86.76
35577;BME280;21680;52.400;16.920;2023-03-26T06:05:38;99342.40;;;6.87;86.68
35577;BME280;21680;52.400;16.920;2023-03-26T06:08:04;99344.63;;;6.88;86.67
35577;BME280;21680;52.400;16.920;2023-03-26T06:10:30;99355.63;;;6.92;86.73
35577;BME280;21680;52.400;16.920;2023-03-26T06:12:55;99351.58;;;6.95;86.55
35577;BME280;21680;52.400;16.920;2023-03-26T06:15:21;99357.73;;;6.96;86.50
35577;BME280;21680;52.400;16.920;2023-03-26T06:17:46;99354.52;;;6.96;86.43
35577;BME280;21680;52.400;16.920;2023-03-26T06:20:12;99352.84;;;6.94;86.44
35577;BME280;21680;52.400;16.920;2023-03-26T06:22:37;99359.25;;;6.94;86.38
35577;BME280;21680;52.400;16.920;2023-03-26T06:25:03;99358.88;;;6.95;86.27
35577;BME280;21680;52.400;16.920;2023-03-26T06:27:28;99371.64;;;6.95;86.25
35577;BME280;21680;52.400;16.920;2023-03-26T06:29:54;99364.88;;;6.95;86.16
35577;BME280;21680;52.400;16.920;2023-03-26T06:32:19;99365.08;;;6.95;86.10
35577;BME280;21680;52.400;16.920;2023-03-26T06:34:44;99365.52;;;6.97;86.19
35577;BME280;21680;52.400;16.920;2023-03-26T06:37:10;99375.16;;;6.99;86.06
35577;BME280;21680;52.400;16.920;2023-03-26T06:39:35;99373.32;;;7.01;85.88
35577;BME280;21680;52.400;16.920;2023-03-26T06:42:00;99366.06;;;7.03;86.06
35577;BME280;21680;52.400;16.920;2023-03-26T06:44:25;99367.97;;;7.08;86.15
35577;BME280;21680;52.400;16.920;2023-03-26T06:46:51;99374.64;;;7.13;86.04
35577;BME280;21680;52.400;16.920;2023-03-26T06:49:16;99375.23;;;7.16;85.81
35577;BME280;21680;52.400;16.920;2023-03-26T06:51:41;99373.92;;;7.17;85.76
35577;BME280;21680;52.400;16.920;2023-03-26T06:54:07;99377.83;;;7.21;85.69
35577;BME280;21680;52.400;16.920;2023-03-26T06:56:33;99381.60;;;7.23;85.53
35577;BME280;21680;52.400;16.920;2023-03-26T06:58:58;99380.20;;;7.26;85.40
35577;BME280;21680;52.400;16.920;2023-03-26T07:01:23;99385.18;;;7.30;85.52
35577;BME280;21680;52.400;16.920;2023-03-26T07:03:49;99387.91;;;7.32;85.44
35577;BME280;21680;52.400;16.920;2023-03-26T07:06:15;99387.30;;;7.34;85.15
35577;BME280;21680;52.400;16.920;2023-03-26T07:08:40;99388.63;;;7.35;85.13
35577;BME280;21680;52.400;16.920;2023-03-26T07:11:05;99380.52;;;7.38;85.16
35577;BME280;21680;52.400;16.920;2023-03-26T07:13:31;99391.27;;;7.43;85.05
35577;BME280;21680;52.400;16.920;2023-03-26T07:15:56;99389.16;;;7.46;84.83
35577;BME280;21680;52.400;16.920;2023-03-26T07:18:21;99386.31;;;7.50;84.84
35577;BME280;21680;52.400;16.920;2023-03-26T07:20:46;99396.09;;;7.53;84.52
35577;BME280;21680;52.400;16.920;2023-03-26T07:23:12;99393.60;;;7.54;84.41
35577;BME280;21680;52.400;16.920;2023-03-26T07:25:40;99395.98;;;7.52;84.35
35577;BME280;21680;52.400;16.920;2023-03-26T07:28:12;99397.87;;;7.49;84.30
35577;BME280;21680;52.400;16.920;2023-03-26T07:33:54;99397.71;;;7.49;84.11
35577;BME280;21680;52.400;16.920;2023-03-26T07:36:28;99396.85;;;7.52;84.05
35577;BME280;21680;52.400;16.920;2023-03-26T07:39:09;99392.05;;;7.53;84.15
35577;BME280;21680;52.400;16.920;2023-03-26T07:41:45;99397.11;;;7.57;84.03
35577;BME280;21680;52.400;16.920;2023-03-26T07:44:26;99397.48;;;7.61;83.82
35577;BME280;21680;52.400;16.920;2023-03-26T07:46:58;99393.48;;;7.66;83.91
35577;BME280;21680;52.400;16.920;2023-03-26T07:49:25;99398.69;;;7.72;83.81
35577;BME280;21680;52.400;16.920;2023-03-26T07:51:51;99409.65;;;7.76;83.54
35577;BME280;21680;52.400;16.920;2023-03-26T07:54:18;99412.01;;;7.79;83.25
35577;BME280;21680;52.400;16.920;2023-03-26T07:56:54;99400.42;;;7.82;83.25
35577;BME280;21680;52.400;16.920;2023-03-26T07:59:35;99406.88;;;7.88;83.06
35577;BME280;21680;52.400;16.920;2023-03-26T08:02:31;99401.77;;;7.91;82.97
35577;BME280;21680;52.400;16.920;2023-03-26T08:05:06;99399.36;;;7.96;83.01
35577;BME280;21680;52.400;16.920;2023-03-26T08:10:26;99408.45;;;8.02;81.99
35577;BME280;21680;52.400;16.920;2023-03-26T08:13:21;99403.60;;;8.03;81.73
35577;BME280;21680;52.400;16.920;2023-03-26T08:15:58;99408.21;;;8.06;81.53
35577;BME280;21680;52.400;16.920;2023-03-26T08:18:49;99405.84;;;8.07;80.97
35577;BME280;21680;52.400;16.920;2023-03-26T08:24:07;99399.55;;;8.16;81.17
35577;BME280;21680;52.400;16.920;2023-03-26T08:26:55;99399.09;;;8.18;80.97
35577;BME280;21680;52.400;16.920;2023-03-26T08:32:16;99402.00;;;8.09;80.95
35577;BME280;21680;52.400;16.920;2023-03-26T08:34:42;99397.30;;;8.18;81.28
35577;BME280;21680;52.400;16.920;2023-03-26T08:37:07;99397.36;;;8.30;81.39
35577;BME280;21680;52.400;16.920;2023-03-26T08:39:34;99401.95;;;8.38;81.08
35577;BME280;21680;52.400;16.920;2023-03-26T08:54:08;99393.55;;;8.35;80.18
35577;BME280;21680;52.400;16.920;2023-03-26T08:56:45;99408.02;;;8.44;80.18
35577;BME280;21680;52.400;16.920;2023-03-26T09:05:00;99391.70;;;8.71;79.77
35577;BME280;21680;52.400;16.920;2023-03-26T09:08:00;99395.73;;;8.76;79.46
35577;BME280;21680;52.400;16.920;2023-03-26T09:10:49;99389.89;;;8.72;79.06
35577;BME280;21680;52.400;16.920;2023-03-26T09:19:13;99396.20;;;8.67;78.20
35577;BME280;21680;52.400;16.920;2023-03-26T09:22:13;99392.31;;;8.76;77.94
35577;BME280;21680;52.400;16.920;2023-03-26T09:27:39;99388.73;;;9.08;78.25
35577;BME280;21680;52.400;16.920;2023-03-26T09:33:31;99401.06;;;9.26;77.22
35577;BME280;21680;52.400;16.920;2023-03-26T09:36:16;99394.54;;;9.25;76.48
35577;BME280;21680;52.400;16.920;2023-03-26T09:38:58;99393.73;;;9.27;75.98
35577;BME280;21680;52.400;16.920;2023-03-26T09:41:35;99388.34;;;9.27;75.56
35577;BME280;21680;52.400;16.920;2023-03-26T09:49:55;99394.60;;;9.24;75.29
35577;BME280;21680;52.400;16.920;2023-03-26T09:58:31;99390.70;;;9.24;74.90
35577;BME280;21680;52.400;16.920;2023-03-26T10:01:23;99386.74;;;9.27;74.63
35577;BME280;21680;52.400;16.920;2023-03-26T10:07:20;99386.98;;;9.44;74.79
35577;BME280;21680;52.400;16.920;2023-03-26T10:12:42;99387.77;;;9.52;74.31
35577;BME280;21680;52.400;16.920;2023-03-26T10:15:20;99386.44;;;9.48;74.39
35577;BME280;21680;52.400;16.920;2023-03-26T10:21:00;99402.41;;;9.21;74.26
35577;BME280;21680;52.400;16.920;2023-03-26T10:23:59;99407.04;;;8.94;74.15
35577;BME280;21680;52.400;16.920;2023-03-26T10:26:38;99412.43;;;8.57;74.50
35577;BME280;21680;52.400;16.920;2023-03-26T10:29:19;99410.68;;;8.31;75.03
35577;BME280;21680;52.400;16.920;2023-03-26T10:34:43;99405.48;;;8.22;76.09
35577;BME280;21680;52.400;16.920;2023-03-26T10:37:35;99409.15;;;8.26;76.51
35577;BME280;21680;52.400;16.920;2023-03-26T10:43:16;99405.30;;;8.51;77.33
35577;BME280;21680;52.400;16.920;2023-03-26T10:49:14;99401.69;;;8.49;77.57
35577;BME280;21680;52.400;16.920;2023-03-26T10:51:53;99413.60;;;8.49;77.83
35577;BME280;21680;52.400;16.920;2023-03-26T10:57:34;99398.61;;;8.37;78.11
35577;BME280;21680;52.400;16.920;2023-03-26T11:00:13;99400.34;;;8.41;78.39
35577;BME280;21680;52.400;16.920;2023-03-26T11:05:53;99399.34;;;8.66;78.74
35577;BME280;21680;52.400;16.920;2023-03-26T11:11:19;99403.45;;;8.72;78.63
35577;BME280;21680;52.400;16.920;2023-03-26T11:14:12;99398.36;;;8.73;78.48
35577;BME280;21680;52.400;16.920;2023-03-26T11:24:45;99396.01;;;9.27;77.59
35577;BME280;21680;52.400;16.920;2023-03-26T11:27:49;99389.36;;;9.46;77.48
35577;BME280;21680;52.400;16.920;2023-03-26T11:30:28;99388.95;;;9.56;76.71
35577;BME280;21680;52.400;16.920;2023-03-26T11:33:02;99387.91;;;9.65;76.74
35577;BME280;21680;52.400;16.920;2023-03-26T11:35:41;99378.05;;;9.83;76.58
35577;BME280;21680;52.400;16.920;2023-03-26T11:38:18;99381.34;;;10.05;76.23
35577;BME280;21680;52.400;16.920;2023-03-26T11:40:48;99374.23;;;10.34;76.35
35577;BME280;21680;52.400;16.920;2023-03-26T11:43:19;99375.61;;;10.54;75.36
35577;BME280;21680;52.400;16.920;2023-03-26T11:45:47;99373.95;;;10.50;74.61
35577;BME280;21680;52.400;16.920;2023-03-26T11:48:34;99376.71;;;10.40;73.82
35577;BME280;21680;52.400;16.920;2023-03-26T11:51:13;99378.48;;;10.20;72.51
35577;BME280;21680;52.400;16.920;2023-03-26T11:53:42;99375.94;;;10.00;72.13
35577;BME280;21680;52.400;16.920;2023-03-26T11:56:23;99376.27;;;9.98;72.34
35577;BME280;21680;52.400;16.920;2023-03-26T11:58:54;99374.73;;;9.94;71.41
35577;BME280;21680;52.400;16.920;2023-03-26T12:01:28;99377.75;;;9.94;71.34
35577;BME280;21680;52.400;16.920;2023-03-26T12:04:02;99374.46;;;10.01;71.33
35577;BME280;21680;52.400;16.920;2023-03-26T12:06:28;99372.19;;;10.06;71.12
35577;BME280;21680;52.400;16.920;2023-03-26T12:08:54;99381.77;;;10.07;70.97
35577;BME280;21680;52.400;16.920;2023-03-26T12:11:29;99389.10;;;10.07;70.81
35577;BME280;21680;52.400;16.920;2023-03-26T12:14:01;99379.16;;;10.03;70.80
35577;BME280;21680;52.400;16.920;2023-03-26T12:16:28;99388.13;;;10.02;70.80
35577;BME280;21680;52.400;16.920;2023-03-26T12:19:08;99406.20;;;10.01;70.49
35577;BME280;21680;52.400;16.920;2023-03-26T12:21:48;99396.76;;;9.72;70.38
35577;BME280;21680;52.400;16.920;2023-03-26T12:24:26;99397.92;;;9.49;70.94
35577;BME280;21680;52.400;16.920;2023-03-26T12:29:57;99393.52;;;9.46;72.33
35577;BME280;21680;52.400;16.920;2023-03-26T12:32:30;99393.91;;;9.38;72.20
35577;BME280;21680;52.400;16.920;2023-03-26T12:35:03;99400.45;;;9.24;72.24
35577;BME280;21680;52.400;16.920;2023-03-26T12:37:35;99395.38;;;9.17;72.33
35577;BME280;21680;52.400;16.920;2023-03-26T12:42:57;99388.42;;;9.01;73.06
35577;BME280;21680;52.400;16.920;2023-03-26T12:45:36;99386.95;;;9.05;73.39
35577;BME280;21680;52.400;16.920;2023-03-26T12:48:01;99384.16;;;9.14;73.44
35577;BME280;21680;52.400;16.920;2023-03-26T12:51:00;99377.88;;;9.17;73.57
35577;BME280;21680;52.400;16.920;2023-03-26T12:56:39;99357.13;;;9.58;74.47
35577;BME280;21680;52.400;16.920;2023-03-26T13:08:13;99342.35;;;10.57;74.22
35577;BME280;21680;52.400;16.920;2023-03-26T13:14:00;99333.27;;;11.69;73.74
35577;BME280;21680;52.400;16.920;2023-03-26T13:19:44;99325.81;;;12.05;73.42
35577;BME280;21680;52.400;16.920;2023-03-26T13:22:06;99331.38;;;12.59;73.45
35577;BME280;21680;52.400;16.920;2023-03-26T13:24:53;99325.67;;;12.86;72.59
35577;BME280;21680;52.400;16.920;2023-03-26T13:27:54;99328.14;;;12.98;70.83
35577;BME280;21680;52.400;16.920;2023-03-26T13:30:38;99328.88;;;12.79;70.25
35577;BME280;21680;52.400;16.920;2023-03-26T13:33:24;99323.82;;;12.87;69.92
35577;BME280;21680;52.400;16.920;2023-03-26T13:38:48;99320.02;;;12.56;69.41
35577;BME280;21680;52.400;16.920;2023-03-26T13:43:53;99323.55;;;11.96;67.71
35577;BME280;21680;52.400;16.920;2023-03-26T13:46:33;99327.95;;;11.58;68.00
35577;BME280;21680;52.400;16.920;2023-03-26T13:49:33;99325.98;;;11.21;66.93
35577;BME280;21680;52.400;16.920;2023-03-26T13:52:07;99333.68;;;10.87;67.01
35577;BME280;21680;52.400;16.920;2023-03-26T13:54:48;99333.23;;;10.71;67.17
35577;BME280;21680;52.400;16.920;2023-03-26T13:57:30;99338.27;;;10.63;67.11
35577;BME280;21680;52.400;16.920;2023-03-26T13:59:59;99342.33;;;10.55;65.87
35577;BME280;21680;52.400;16.920;2023-03-26T14:02:38;99333.75;;;10.41;65.65
35577;BME280;21680;52.400;16.920;2023-03-26T14:05:08;99331.98;;;10.36;65.54
35577;BME280;21680;52.400;16.920;2023-03-26T14:07:54;99332.27;;;10.26;64.96
35577;BME280;21680;52.400;16.920;2023-03-26T14:10:27;99330.89;;;10.25;65.61
35577;BME280;21680;52.400;16.920;2023-03-26T14:16:04;99335.27;;;10.35;65.61
35577;BME280;21680;52.400;16.920;2023-03-26T14:18:48;99335.48;;;10.37;65.23
35577;BME280;21680;52.400;16.920;2023-03-26T14:24:29;99334.98;;;10.42;65.61
35577;BME280;21680;52.400;16.920;2023-03-26T14:27:16;99336.21;;;10.56;65.62
35577;BME280;21680;52.400;16.920;2023-03-26T14:33:15;99335.44;;;10.59;65.10
35577;BME280;21680;52.400;16.920;2023-03-26T14:35:55;99333.14;;;10.53;64.69
35577;BME280;21680;52.400;16.920;2023-03-26T14:41:23;99338.17;;;10.48;63.82
35577;BME280;21680;52.400;16.920;2023-03-26T14:52:46;99335.08;;;10.21;62.11
35577;BME280;21680;52.400;16.920;2023-03-26T15:04:33;99343.00;;;10.02;62.17
35577;BME280;21680;52.400;16.920;2023-03-26T15:07:35;99341.13;;;9.95;61.96
35577;BME280;21680;52.400;16.920;2023-03-26T15:26:38;99347.15;;;9.63;62.64
35577;BME280;21680;52.400;16.920;2023-03-26T15:35:29;99339.30;;;9.61;63.11
35577;BME280;21680;52.400;16.920;2023-03-26T15:38:22;99338.14;;;9.59;63.35
35577;BME280;21680;52.400;16.920;2023-03-26T15:41:03;99338.59;;;9.58;63.08
35577;BME280;21680;52.400;16.920;2023-03-26T15:46:53;99335.50;;;9.53;63.25
35577;BME280;21680;52.400;16.920;2023-03-26T15:49:29;99332.70;;;9.49;63.01
35577;BME280;21680;52.400;16.920;2023-03-26T15:57:43;99333.10;;;9.39;62.59
35577;BME280;21680;52.400;16.920;2023-03-26T16:00:20;99337.90;;;9.36;62.67
35577;BME280;21680;52.400;16.920;2023-03-26T16:05:47;99335.67;;;9.32;62.10
35577;BME280;21680;52.400;16.920;2023-03-26T16:11:02;99332.18;;;9.27;61.99
35577;BME280;21680;52.400;16.920;2023-03-26T16:18:33;99324.79;;;9.47;62.20
35577;BME280;21680;52.400;16.920;2023-03-26T16:26:15;99319.13;;;9.52;62.53
35577;BME280;21680;52.400;16.920;2023-03-26T16:34:16;99315.25;;;9.54;63.18
35577;BME280;21680;52.400;16.920;2023-03-26T16:36:46;99318.52;;;9.51;63.23
35577;BME280;21680;52.400;16.920;2023-03-26T16:39:22;99321.98;;;9.46;63.30
35577;BME280;21680;52.400;16.920;2023-03-26T16:41:54;99320.10;;;9.38;63.45
35577;BME280;21680;52.400;16.920;2023-03-26T16:44:33;99323.32;;;9.29;63.39
35577;BME280;21680;52.400;16.920;2023-03-26T16:47:30;99320.91;;;9.22;63.54
35577;BME280;21680;52.400;16.920;2023-03-26T16:52:49;99313.80;;;9.09;63.72
35577;BME280;21680;52.400;16.920;2023-03-26T17:03:57;99317.91;;;8.76;63.82
35577;BME280;21680;52.400;16.920;2023-03-26T17:06:35;99319.19;;;8.66;63.94
35577;BME280;21680;52.400;16.920;2023-03-26T17:09:20;99318.91;;;8.58;63.75
35577;BME280;21680;52.400;16.920;2023-03-26T17:11:55;99316.42;;;8.52;64.15
35577;BME280;21680;52.400;16.920;2023-03-26T17:14:49;99318.91;;;8.46;64.17
35577;BME280;21680;52.400;16.920;2023-03-26T17:20:26;99326.05;;;8.29;64.32